createdAt,value
2022-12-18T00:01:07.185Z,102736.44
2022-12-18T00:03:34.808Z,102699.09
2022-12-18T00:06:01.498Z,102745.13
2022-12-18T00:08:28.943Z,102754.69
2022-12-18T00:10:55.527Z,102727.75
2022-12-18T00:13:26.166Z,102727.75
2022-12-18T00:15:54.338Z,102734.72
2022-12-18T00:18:23.159Z,102730.34
2022-12-18T00:20:49.522Z,102741.66
2022-12-18T00:23:15.908Z,102748.56
2022-12-18T00:25:42.386Z,102749.44
2022-12-18T00:28:08.791Z,102770.28
2022-12-18T00:30:35.185Z,102756.38
2022-12-18T00:33:01.599Z,102776.38
2022-12-18T00:35:28.011Z,102760.72
2022-12-18T00:37:54.399Z,102744.22
2022-12-18T00:40:20.886Z,102762.44
2022-12-18T00:42:59.130Z,102760.72
2022-12-18T00:45:31.347Z,102757.22
2022-12-18T00:47:58.397Z,102759.00
2022-12-18T00:50:25.985Z,102769.41
2022-12-18T00:52:53.017Z,102757.25
2022-12-18T00:55:19.794Z,102755.47
2022-12-18T00:57:46.193Z,102747.66
2022-12-18T01:00:14.934Z,102773.72
2022-12-18T01:02:42.127Z,102757.16
2022-12-18T01:05:10.875Z,102776.28
2022-12-18T01:07:37.583Z,102781.47
2022-12-18T01:10:05.368Z,102778.84
2022-12-18T01:12:32.057Z,102758.91
2022-12-18T01:14:58.558Z,102725.81
2022-12-18T01:17:24.997Z,102745.81
2022-12-18T01:19:51.394Z,102768.47
2022-12-18T01:22:17.784Z,102767.56
2022-12-18T01:24:44.221Z,102763.25
2022-12-18T01:27:10.765Z,102754.56
2022-12-18T01:29:37.197Z,102771.06
2022-12-18T01:32:03.790Z,102760.63
2022-12-18T01:34:30.246Z,102763.25
2022-12-18T01:36:56.703Z,102774.50
2022-12-18T01:39:23.273Z,102778.00
2022-12-18T01:42:04.652Z,102770.19
2022-12-18T01:44:58.514Z,102781.47
2022-12-18T01:47:39.375Z,102782.34
2022-12-18T01:50:18.618Z,102786.66
2022-12-18T01:52:48.600Z,102794.50
2022-12-18T01:55:17.121Z,102797.97
2022-12-18T01:57:43.721Z,102762.28
2022-12-18T02:00:17.399Z,102800.53
2022-12-18T02:02:46.076Z,102800.53
2022-12-18T02:05:15.861Z,102797.91
2022-12-18T02:07:54.234Z,102791.81
2022-12-18T02:10:48.088Z,102794.41
2022-12-18T02:13:22.450Z,102787.44
2022-12-18T02:16:30.010Z,102800.47
2022-12-18T02:19:01.270Z,102804.81
2022-12-18T02:22:02.359Z,102810.88
2022-12-18T02:24:53.720Z,102777.81
2022-12-18T02:27:20.572Z,102809.16
2022-12-18T02:29:58.656Z,102815.22
2022-12-18T02:32:29.006Z,102819.56
2022-12-18T02:34:57.193Z,102817.81
2022-12-18T02:37:26.762Z,102809.94
2022-12-18T02:39:55.902Z,102806.47
2022-12-18T02:42:23.289Z,102808.19
2022-12-18T02:44:51.904Z,102809.03
2022-12-18T02:47:22.785Z,102817.66
2022-12-18T02:50:23.072Z,102818.56
2022-12-18T02:53:18.305Z,102819.38
2022-12-18T02:55:53.772Z,102821.13
2022-12-18T02:58:31.513Z,102824.59
2022-12-18T03:01:16.797Z,102801.13
2022-12-18T03:03:51.357Z,102797.66
2022-12-18T03:06:27.903Z,102817.63
2022-12-18T03:09:00.169Z,102832.34
2022-12-18T03:11:48.344Z,102801.91
2022-12-18T03:14:17.580Z,102824.50
2022-12-18T03:16:45.725Z,102820.16
2022-12-18T03:19:19.805Z,102792.31
2022-12-18T03:21:50.532Z,102820.16
2022-12-18T03:24:20.723Z,102830.50
2022-12-18T03:26:51.952Z,102838.31
2022-12-18T03:29:23.539Z,102781.84
2022-12-18T03:31:55.953Z,102827.06
2022-12-18T03:34:30.554Z,102827.06
2022-12-18T03:36:57.240Z,102807.06
2022-12-18T03:39:23.712Z,102821.81
2022-12-18T03:42:02.256Z,102834.00
2022-12-18T03:44:56.833Z,102836.59
2022-12-18T03:47:44.973Z,102834.00
2022-12-18T03:50:21.552Z,102798.31
2022-12-18T03:52:54.171Z,102834.84
2022-12-18T03:55:22.800Z,102816.63
2022-12-18T03:57:50.352Z,102830.53
2022-12-18T04:00:20.147Z,102825.31
2022-12-18T04:02:53.820Z,102828.81
2022-12-18T04:05:21.616Z,102818.34
2022-12-18T04:07:50.538Z,102821.84
2022-12-18T04:10:18.007Z,102821.00
2022-12-18T04:12:44.826Z,102787.91
2022-12-18T04:15:13.017Z,102817.50
2022-12-18T04:17:41.143Z,102810.56
2022-12-18T04:20:07.984Z,102784.50
2022-12-18T04:22:34.493Z,102807.94
2022-12-18T04:25:01.188Z,102825.34
2022-12-18T04:27:27.745Z,102819.22
2022-12-18T04:29:54.151Z,102831.41
2022-12-18T04:32:20.600Z,102802.75
2022-12-18T04:34:47.031Z,102824.47
2022-12-18T04:37:13.581Z,102818.41
2022-12-18T04:39:40.211Z,102798.41
2022-12-18T04:42:06.766Z,102813.16
2022-12-18T04:44:33.186Z,102813.16
2022-12-18T04:46:59.684Z,102823.53
2022-12-18T04:49:26.180Z,102813.06
2022-12-18T04:51:53.889Z,102806.09
2022-12-18T04:54:20.456Z,102796.47
2022-12-18T04:56:47.683Z,102826.91
2022-12-18T04:59:14.217Z,102793.81
2022-12-18T05:01:40.887Z,102782.47
2022-12-18T05:04:07.768Z,102834.59
2022-12-18T05:06:34.178Z,102833.72
2022-12-18T05:09:00.606Z,102838.03
2022-12-18T05:11:27.045Z,102827.56
2022-12-18T05:13:53.495Z,102858.81
2022-12-18T05:16:19.993Z,102835.34
2022-12-18T05:18:46.447Z,102865.75
2022-12-18T05:21:13.116Z,102837.03
2022-12-18T05:23:39.826Z,102843.13
2022-12-18T05:26:07.576Z,102855.34
2022-12-18T05:28:35.871Z,102837.06
2022-12-18T05:31:04.503Z,102836.19
2022-12-18T05:33:33.975Z,102849.31
2022-12-18T05:36:05.840Z,102858.00
2022-12-18T05:38:34.135Z,102869.28
2022-12-18T05:41:00.935Z,102857.09
2022-12-18T05:43:28.224Z,102873.66
2022-12-18T05:45:55.410Z,102870.22
2022-12-18T05:48:24.945Z,102869.38
2022-12-18T05:50:52.017Z,102862.44
2022-12-18T05:53:20.807Z,102872.06
2022-12-18T05:55:48.030Z,102873.81
2022-12-18T05:58:15.587Z,102877.31
2022-12-18T06:00:44.153Z,102868.66
2022-12-18T06:03:13.492Z,102863.47
2022-12-18T06:05:45.052Z,102866.97
2022-12-18T06:08:13.292Z,102874.81
2022-12-18T06:10:40.823Z,102873.97
2022-12-18T06:13:07.873Z,102872.16
2022-12-18T06:15:37.350Z,102837.41
2022-12-18T06:18:04.199Z,102870.50
2022-12-18T06:20:33.411Z,102860.03
2022-12-18T06:23:00.536Z,102872.22
2022-12-18T06:25:27.129Z,102835.72
2022-12-18T06:27:53.524Z,102880.06
2022-12-18T06:30:20.690Z,102876.53
2022-12-18T06:32:53.056Z,102878.28
2022-12-18T06:35:22.809Z,102857.38
2022-12-18T06:37:49.397Z,102882.66
2022-12-18T06:40:15.788Z,102883.53
2022-12-18T06:42:42.216Z,102876.56
2022-12-18T06:45:09.163Z,102879.19
2022-12-18T06:47:35.611Z,102878.31
2022-12-18T06:50:02.021Z,102888.75
2022-12-18T06:52:28.509Z,102890.50
2022-12-18T06:54:54.949Z,102897.47
2022-12-18T06:57:21.976Z,102897.47
2022-12-18T06:59:48.342Z,102890.53
2022-12-18T07:02:15.126Z,102880.97
2022-12-18T07:04:41.814Z,102897.50
2022-12-18T07:07:08.182Z,102892.31
2022-12-18T07:09:34.713Z,102905.34
2022-12-18T07:12:01.198Z,102906.19
2022-12-18T07:14:27.822Z,102886.19
2022-12-18T07:16:54.896Z,102898.38
2022-12-18T07:19:21.454Z,102887.97
2022-12-18T07:21:48.030Z,102910.56
2022-12-18T07:24:14.443Z,102908.81
2022-12-18T07:26:40.989Z,102905.31
2022-12-18T07:29:07.396Z,102918.38
2022-12-18T07:31:33.830Z,102914.03
2022-12-18T07:34:00.384Z,102919.25
2022-12-18T07:36:26.965Z,102900.09
2022-12-18T07:38:53.876Z,102922.75
2022-12-18T07:41:20.858Z,102911.41
2022-12-18T07:43:48.090Z,102930.53
2022-12-18T07:46:16.575Z,102911.41
2022-12-18T07:48:44.791Z,102925.34
2022-12-18T07:51:13.410Z,102937.53
2022-12-18T07:53:40.740Z,102933.19
2022-12-18T07:56:28.082Z,102907.06
2022-12-18T07:58:55.979Z,102928.00
2022-12-18T08:01:22.526Z,102908.06
2022-12-18T08:03:49.047Z,102928.06
2022-12-18T08:06:17.672Z,102926.34
2022-12-18T08:08:44.128Z,102929.81
2022-12-18T08:11:10.487Z,102931.59
2022-12-18T08:13:37.284Z,102929.81
2022-12-18T08:16:06.693Z,102919.44
2022-12-18T08:18:34.831Z,102922.06
2022-12-18T08:21:12.392Z,102918.63
2022-12-18T08:23:42.545Z,102918.63
2022-12-18T08:26:19.128Z,102917.78
2022-12-18T08:28:46.113Z,102910.00
2022-12-18T08:31:12.839Z,102913.50
2022-12-18T08:33:40.596Z,102907.41
2022-12-18T08:36:09.497Z,102916.13
2022-12-18T08:38:35.962Z,102896.16
2022-12-18T08:41:12.040Z,102913.56
2022-12-18T08:43:57.700Z,102917.09
2022-12-18T08:46:28.748Z,102908.38
2022-12-18T08:48:56.991Z,102911.91
2022-12-18T08:51:23.816Z,102926.69
2022-12-18T08:53:50.403Z,102925.00
2022-12-18T08:56:17.088Z,102911.06
2022-12-18T08:58:43.728Z,102914.56
2022-12-18T09:01:12.205Z,102917.22
2022-12-18T09:03:39.700Z,102915.47
2022-12-18T09:06:07.082Z,102923.31
2022-12-18T09:08:37.829Z,102923.28
2022-12-18T09:11:04.835Z,102926.78
2022-12-18T09:13:31.328Z,102916.31
2022-12-18T09:15:57.976Z,102911.13
2022-12-18T09:18:25.156Z,102918.06
2022-12-18T09:20:53.660Z,102911.94
2022-12-18T09:23:20.876Z,102907.59
2022-12-18T09:25:47.335Z,102880.63
2022-12-18T09:28:15.587Z,102893.66
2022-12-18T09:30:45.154Z,102919.75
2022-12-18T09:33:11.973Z,102917.97
2022-12-18T09:35:39.861Z,102923.13
2022-12-18T09:38:06.921Z,102911.81
2022-12-18T09:40:41.083Z,102906.56
2022-12-18T09:43:11.854Z,102919.59
2022-12-18T09:45:53.443Z,102923.94
2022-12-18T09:48:29.178Z,102916.97
2022-12-18T09:51:01.643Z,102916.88
2022-12-18T09:53:33.557Z,102921.19
2022-12-18T09:56:04.181Z,102917.66
2022-12-18T09:58:46.247Z,102918.47
2022-12-18T10:01:22.064Z,102919.25
2022-12-18T10:03:49.036Z,102899.22
2022-12-18T10:06:40.324Z,102924.25
2022-12-18T10:09:22.467Z,102922.41
2022-12-18T10:12:08.004Z,102921.34
2022-12-18T10:14:49.407Z,102922.06
2022-12-18T10:17:24.987Z,102916.63
2022-12-18T10:20:02.494Z,102926.00
2022-12-18T10:23:00.325Z,102929.25
2022-12-18T10:25:36.228Z,102934.25
2022-12-18T10:28:14.749Z,102930.44
2022-12-18T10:30:43.414Z,102938.09
2022-12-18T10:33:19.481Z,102939.59
2022-12-18T10:35:48.011Z,102931.53
2022-12-18T10:38:17.515Z,102943.53
2022-12-18T10:40:57.739Z,102931.97
2022-12-18T10:43:26.152Z,102928.97
2022-12-18T10:46:03.470Z,102912.47
2022-12-18T10:48:31.442Z,102913.22
2022-12-18T10:51:13.987Z,102928.59
2022-12-18T10:53:43.566Z,102908.25
2022-12-18T10:56:10.391Z,102904.34
2022-12-18T10:58:39.631Z,102906.66
2022-12-18T11:01:18.229Z,102892.41
2022-12-18T11:03:47.017Z,102884.28
2022-12-18T11:06:16.164Z,102904.66
2022-12-18T11:08:45.673Z,102900.84
2022-12-18T11:11:22.812Z,102892.59
2022-12-18T11:14:05.381Z,102897.50
2022-12-18T11:16:57.890Z,102897.22
2022-12-18T11:19:38.077Z,102904.03
2022-12-18T11:22:27.396Z,102905.63
2022-12-18T11:25:30.327Z,102897.81
2022-12-18T11:28:23.810Z,102894.31
2022-12-18T11:30:50.239Z,102884.09
2022-12-18T11:33:21.714Z,102890.38
2022-12-18T11:35:55.268Z,102896.75
2022-12-18T11:38:27.743Z,102886.41
2022-12-18T11:41:03.159Z,102893.53
2022-12-18T11:43:39.670Z,102884.13
2022-12-18T11:46:20.382Z,102883.13
2022-12-18T11:49:18.278Z,102882.91
2022-12-18T11:51:59.780Z,102886.25
2022-12-18T11:54:26.221Z,102858.34
2022-12-18T11:57:35.850Z,102863.00
2022-12-18T12:00:15.903Z,102855.72
2022-12-18T12:03:16.621Z,102855.56
2022-12-18T12:06:02.693Z,102844.16
2022-12-18T12:08:52.948Z,102848.63
2022-12-18T12:11:19.234Z,102830.94
2022-12-18T12:14:10.190Z,102853.34
2022-12-18T12:16:49.897Z,102858.97
2022-12-18T12:19:38.265Z,102838.97
2022-12-18T12:22:18.159Z,102829.78
2022-12-18T12:25:00.431Z,102801.28
2022-12-18T12:27:36.593Z,102816.41
2022-12-18T12:30:06.539Z,102805.88
2022-12-18T12:33:06.607Z,102800.72
2022-12-18T12:35:52.057Z,102806.94
2022-12-18T12:38:27.416Z,102759.41
2022-12-18T12:41:04.224Z,102784.41
2022-12-18T12:43:47.878Z,102776.47
2022-12-18T12:46:19.880Z,102771.84
2022-12-18T12:48:50.049Z,102766.19
2022-12-18T12:51:35.973Z,102773.59
2022-12-18T12:54:05.938Z,102761.72
2022-12-18T12:57:08.105Z,102765.50
2022-12-18T13:00:11.266Z,102767.78
2022-12-18T13:02:41.005Z,102767.66
2022-12-18T13:05:20.069Z,102772.75
2022-12-18T13:08:00.475Z,102758.81
2022-12-18T13:10:44.226Z,102765.53
2022-12-18T13:13:13.103Z,102763.63
2022-12-18T13:15:40.617Z,102774.84
2022-12-18T13:18:10.159Z,102772.97
2022-12-18T13:20:41.099Z,102763.22
2022-12-18T13:23:26.121Z,102765.75
2022-12-18T13:25:59.853Z,102753.75
2022-12-18T13:28:44.445Z,102765.38
2022-12-18T13:31:11.117Z,102755.06
2022-12-18T13:34:16.578Z,102727.78
2022-12-18T13:36:32.675Z,102755.06
2022-12-18T13:39:29.992Z,102755.41
2022-12-18T13:42:05.660Z,102747.91
2022-12-18T13:44:40.222Z,102757.22
2022-12-18T13:47:34.739Z,102760.06
2022-12-18T13:50:10.405Z,102768.38
2022-12-18T13:52:40.299Z,102770.44
2022-12-18T13:55:17.033Z,102767.13
2022-12-18T13:57:43.483Z,102773.53
2022-12-18T14:00:26.089Z,102762.38
2022-12-18T14:02:53.222Z,102752.16
2022-12-18T14:05:34.464Z,102740.91
2022-12-18T14:08:12.046Z,102736.78
2022-12-18T14:10:49.937Z,102741.50
2022-12-18T14:13:24.158Z,102751.31
2022-12-18T14:15:51.443Z,102754.00
2022-12-18T14:18:32.961Z,102744.44
2022-12-18T14:21:02.616Z,102737.63
2022-12-18T14:23:41.939Z,102738.63
2022-12-18T14:26:28.938Z,102700.63
2022-12-18T14:29:02.208Z,102701.59
2022-12-18T14:31:31.414Z,102703.53
2022-12-18T14:33:57.909Z,102733.06
2022-12-18T14:36:26.993Z,102745.47
2022-12-18T14:38:55.648Z,102744.69
2022-12-18T14:41:23.035Z,102746.56
2022-12-18T14:43:52.769Z,102718.91
2022-12-18T14:46:43.325Z,102740.63
2022-12-18T14:49:35.552Z,102737.31
2022-12-18T14:52:06.383Z,102722.69
2022-12-18T14:54:37.940Z,102728.66
2022-12-18T14:57:35.258Z,102720.91
2022-12-18T15:00:06.720Z,102704.41
2022-12-18T15:02:36.876Z,102703.59
2022-12-18T15:05:11.309Z,102703.59
2022-12-18T15:07:44.421Z,102701.16
2022-12-18T15:10:14.719Z,102696.00
2022-12-18T15:13:06.999Z,102683.06
2022-12-18T15:15:46.079Z,102701.44
2022-12-18T15:18:19.152Z,102692.75
2022-12-18T15:20:46.009Z,102684.09
2022-12-18T15:23:23.665Z,102642.53
2022-12-18T15:25:58.427Z,102673.75
2022-12-18T15:28:36.232Z,102669.53
2022-12-18T15:31:04.207Z,102671.28
2022-12-18T15:33:33.750Z,102685.28
2022-12-18T15:36:03.489Z,102654.03
2022-12-18T15:38:30.496Z,102660.97
2022-12-18T15:40:57.856Z,102659.22
2022-12-18T15:43:34.625Z,102642.63
2022-12-18T15:46:14.316Z,102643.41
2022-12-18T15:48:49.142Z,102639.91
2022-12-18T15:51:25.188Z,102631.19
2022-12-18T15:53:55.469Z,102632.00
2022-12-18T15:56:40.451Z,102599.94
2022-12-18T15:59:25.109Z,102637.94
2022-12-18T16:01:53.942Z,102619.59
2022-12-18T16:04:22.411Z,102631.78
2022-12-18T16:09:36.695Z,102623.81
2022-12-18T16:12:03.279Z,102608.22
2022-12-18T16:14:30.786Z,102609.00
2022-12-18T16:16:59.770Z,102596.63
2022-12-18T16:19:27.082Z,102586.34
2022-12-18T16:21:56.092Z,102599.16
2022-12-18T16:24:28.336Z,102607.84
2022-12-18T16:26:56.518Z,102584.34
2022-12-18T16:29:27.738Z,102596.50
2022-12-18T16:31:59.436Z,102585.13
2022-12-18T16:34:29.328Z,102574.66
2022-12-18T16:37:06.190Z,102575.66
2022-12-18T16:39:37.376Z,102595.50
2022-12-18T16:42:07.250Z,102593.75
2022-12-18T16:44:34.662Z,102591.22
2022-12-18T16:47:03.332Z,102585.91
2022-12-18T16:49:30.974Z,102594.69
2022-12-18T16:51:58.036Z,102566.13
2022-12-18T16:54:24.941Z,102603.44
2022-12-18T16:56:52.129Z,102580.00
2022-12-18T16:59:18.597Z,102587.00
2022-12-18T17:01:45.209Z,102595.63
2022-12-18T17:04:11.943Z,102584.31
2022-12-18T17:06:44.797Z,102571.25
2022-12-18T17:09:18.276Z,102563.38
2022-12-18T17:11:44.719Z,102536.44
2022-12-18T17:14:23.033Z,102551.97
2022-12-18T17:17:07.249Z,102552.00
2022-12-18T17:19:34.283Z,102558.19
2022-12-18T17:22:00.780Z,102574.72
2022-12-18T17:24:31.409Z,102553.03
2022-12-18T17:27:00.835Z,102561.66
2022-12-18T17:29:27.245Z,102567.75
2022-12-18T17:31:53.695Z,102539.13
2022-12-18T17:34:22.024Z,102558.97
2022-12-18T17:36:48.571Z,102561.56
2022-12-18T17:39:19.188Z,102551.97
2022-12-18T17:41:46.106Z,102548.47
2022-12-18T17:44:12.831Z,102531.03
2022-12-18T17:46:39.438Z,102528.41
2022-12-18T17:49:06.133Z,102530.97
2022-12-18T17:51:32.580Z,102521.31
2022-12-18T17:53:59.063Z,102524.78
2022-12-18T17:56:26.159Z,102520.44
2022-12-18T17:58:52.647Z,102513.44
2022-12-18T18:01:23.257Z,102493.28
2022-12-18T18:03:50.976Z,102486.31
2022-12-18T18:06:20.360Z,102488.91
2022-12-18T18:08:47.059Z,102472.31
2022-12-18T18:11:35.685Z,102462.72
2022-12-18T18:14:05.174Z,102473.97
2022-12-18T18:16:35.187Z,102466.06
2022-12-18T18:19:04.342Z,102450.47
2022-12-18T18:21:32.082Z,102465.16
2022-12-18T18:24:03.054Z,102471.25
2022-12-18T18:26:31.180Z,102478.97
2022-12-18T18:28:59.851Z,102459.84
2022-12-18T18:31:29.988Z,102460.75
2022-12-18T18:33:57.174Z,102418.25
2022-12-18T18:36:24.309Z,102449.38
2022-12-18T18:38:51.731Z,102451.13
2022-12-18T18:41:19.035Z,102452.84
2022-12-18T18:43:45.756Z,102438.94
2022-12-18T18:46:15.761Z,102412.84
2022-12-18T18:48:43.736Z,102431.94
2022-12-18T18:51:15.601Z,102407.56
2022-12-18T18:53:49.839Z,102417.91
2022-12-18T18:56:45.612Z,102410.03
2022-12-18T18:59:05.819Z,102398.78
2022-12-18T19:01:32.930Z,102397.72
2022-12-18T19:04:02.574Z,102373.38
2022-12-18T19:06:29.840Z,102349.25
2022-12-18T19:08:57.348Z,102369.94
2022-12-18T19:11:44.293Z,102346.38
2022-12-18T19:14:13.326Z,102348.03
2022-12-18T19:16:40.218Z,102359.13
2022-12-18T19:19:08.105Z,102359.97
2022-12-18T19:21:35.584Z,102353.00
2022-12-18T19:24:02.839Z,102356.56
2022-12-18T19:26:30.375Z,102359.09
2022-12-18T19:29:23.294Z,102337.22
2022-12-18T19:31:49.733Z,102360.81
2022-12-18T19:34:16.168Z,102339.81
2022-12-18T19:36:42.622Z,102312.78
2022-12-18T19:39:14.816Z,102332.91
2022-12-18T19:41:42.358Z,102329.31
2022-12-18T19:44:11.837Z,102322.31
2022-12-18T19:46:41.627Z,102327.50
2022-12-18T19:49:11.418Z,102317.84
2022-12-18T19:51:42.954Z,102323.09
2022-12-18T19:54:13.349Z,102312.56
2022-12-18T19:56:43.405Z,102317.06
2022-12-18T19:59:10.042Z,102316.19
2022-12-18T20:01:36.568Z,102306.47
2022-12-18T20:04:03.374Z,102302.09
2022-12-18T20:06:36.172Z,102315.13
2022-12-18T20:09:06.048Z,102302.00
2022-12-18T20:11:36.388Z,102307.19
2022-12-18T20:14:08.446Z,102298.50
2022-12-18T20:16:35.320Z,102270.44
2022-12-18T20:19:02.227Z,102284.38
2022-12-18T20:21:31.854Z,102267.00
2022-12-18T20:23:59.880Z,102277.25
2022-12-18T20:26:26.844Z,102263.34
2022-12-18T20:28:54.491Z,102268.44
2022-12-18T20:31:21.011Z,102237.38
2022-12-18T20:33:49.840Z,102262.28
2022-12-18T20:36:21.359Z,102258.72
2022-12-18T20:38:51.822Z,102255.22
2022-12-18T20:41:22.590Z,102251.66
2022-12-18T20:43:49.026Z,102241.22
2022-12-18T20:46:18.800Z,102244.69
2022-12-18T20:48:48.234Z,102240.25
2022-12-18T20:51:17.101Z,102238.47
2022-12-18T20:53:43.911Z,102221.75
2022-12-18T20:56:21.616Z,102221.69
2022-12-18T20:58:49.782Z,102213.75
2022-12-18T21:01:19.137Z,102191.28
2022-12-18T21:03:47.075Z,102212.00
2022-12-18T21:06:15.530Z,102181.31
2022-12-18T21:08:42.353Z,102192.66
2022-12-18T21:11:46.944Z,102209.22
2022-12-18T21:14:16.571Z,102210.16
2022-12-18T21:16:44.083Z,102213.59
2022-12-18T21:19:19.092Z,102218.75
2022-12-18T21:21:47.241Z,102248.63
2022-12-18T21:24:13.623Z,102258.31
2022-12-18T21:26:45.483Z,102276.75
2022-12-18T21:29:15.619Z,102328.34
2022-12-18T21:31:42.792Z,102287.25
2022-12-18T21:34:15.569Z,102309.88
2022-12-18T21:36:42.091Z,102291.84
2022-12-18T21:39:08.689Z,102308.16
2022-12-18T21:41:53.770Z,102279.38
2022-12-18T21:44:22.287Z,102272.28
2022-12-18T21:46:55.179Z,102245.53
2022-12-18T21:49:24.296Z,102264.41
2022-12-18T21:51:53.694Z,102246.03
2022-12-18T21:54:20.914Z,102241.66
2022-12-18T21:56:58.436Z,102259.16
2022-12-18T21:59:26.225Z,102238.53
2022-12-18T22:01:54.842Z,102254.75
2022-12-18T22:04:21.747Z,102246.97
2022-12-18T22:06:48.703Z,102233.16
2022-12-18T22:09:17.389Z,102240.78
2022-12-18T22:11:44.513Z,102246.81
2022-12-18T22:14:11.913Z,102221.63
2022-12-18T22:16:38.370Z,102211.09
2022-12-18T22:19:06.602Z,102216.38
2022-12-18T22:21:35.520Z,102210.88
2022-12-18T22:24:04.445Z,102213.59
2022-12-18T22:26:39.305Z,102200.38
2022-12-18T22:29:25.171Z,102202.09
2022-12-18T22:31:52.463Z,102203.78
2022-12-18T22:34:22.840Z,102184.78
2022-12-18T22:36:49.852Z,102202.81
2022-12-18T22:39:22.012Z,102187.13
2022-12-18T22:41:49.034Z,102185.41
2022-12-18T22:44:18.078Z,102199.25
2022-12-18T22:46:49.325Z,102186.97
2022-12-18T22:49:24.670Z,102176.41
2022-12-18T22:51:52.440Z,102165.03
2022-12-18T22:54:19.112Z,102154.53
2022-12-18T22:56:49.092Z,102147.34
2022-12-18T22:59:17.824Z,102148.28
2022-12-18T23:01:48.045Z,102139.41
2022-12-18T23:04:16.194Z,102111.00
2022-12-18T23:06:43.412Z,102122.81
2022-12-18T23:09:19.145Z,102122.81
2022-12-18T23:11:46.690Z,102114.91
2022-12-18T23:14:13.500Z,102108.91
2022-12-18T23:16:40.053Z,102106.13
2022-12-18T23:19:06.963Z,102106.06
2022-12-18T23:21:33.390Z,102092.03
2022-12-18T23:24:00.689Z,102086.88
2022-12-18T23:26:27.489Z,102094.84
2022-12-18T23:28:56.399Z,102102.59
2022-12-18T23:31:29.192Z,102089.53
2022-12-18T23:33:57.516Z,102082.81
2022-12-18T23:36:24.419Z,102095.59
2022-12-18T23:38:52.955Z,102087.78
2022-12-18T23:41:21.362Z,102102.50
2022-12-18T23:43:48.005Z,102095.56
2022-12-18T23:46:25.273Z,102107.63
2022-12-18T23:48:52.217Z,102100.78
2022-12-18T23:51:23.344Z,102096.38
2022-12-18T23:53:50.277Z,102096.28
2022-12-18T23:56:16.727Z,102085.94
2022-12-18T23:58:43.980Z,102091.22
